createdAt,value
2022-12-31T00:00:14.845Z,14.10
2022-12-31T00:02:41.833Z,13.40
2022-12-31T00:05:10.338Z,15.85
2022-12-31T00:10:04.505Z,17.77
2022-12-31T00:12:31.394Z,18.10
2022-12-31T00:14:58.319Z,15.05
2022-12-31T00:17:25.191Z,22.98
2022-12-31T00:19:52.117Z,24.63
2022-12-31T00:22:18.932Z,21.92
2022-12-31T00:24:45.807Z,17.42
2022-12-31T00:27:12.714Z,12.65
2022-12-31T00:29:39.517Z,13.88
2022-12-31T00:32:06.500Z,19.92
2022-12-31T00:34:33.324Z,18.92
2022-12-31T00:37:00.129Z,13.93
2022-12-31T00:39:26.964Z,17.85
2022-12-31T00:41:53.927Z,18.25
2022-12-31T00:44:20.828Z,20.05
2022-12-31T00:46:48.436Z,21.13
2022-12-31T00:49:15.536Z,26.30
2022-12-31T00:51:42.451Z,17.25
2022-12-31T00:54:10.139Z,18.40
2022-12-31T00:56:36.903Z,17.05
2022-12-31T00:59:04.053Z,21.10
2022-12-31T01:01:34.780Z,20.10
2022-12-31T01:04:05.576Z,15.43
2022-12-31T01:06:32.706Z,13.03
2022-12-31T01:09:00.048Z,18.25
2022-12-31T01:11:29.607Z,12.40
2022-12-31T01:14:00.848Z,15.50
2022-12-31T01:16:33.962Z,15.57
2022-12-31T01:19:03.789Z,17.38
2022-12-31T01:21:31.875Z,12.48
2022-12-31T01:23:59.838Z,8.35
2022-12-31T01:26:27.492Z,12.65
2022-12-31T01:28:54.646Z,14.82
2022-12-31T01:31:23.542Z,19.75
2022-12-31T01:33:51.685Z,10.07
2022-12-31T01:36:26.239Z,16.77
2022-12-31T01:38:54.876Z,15.60
2022-12-31T01:41:24.827Z,14.05
2022-12-31T01:43:58.661Z,17.58
2022-12-31T01:46:36.432Z,19.85
2022-12-31T01:49:30.547Z,22.75
2022-12-31T01:52:06.638Z,15.18
2022-12-31T01:54:39.713Z,17.52
2022-12-31T01:57:09.063Z,18.02
2022-12-31T01:59:36.245Z,15.50
2022-12-31T02:02:04.182Z,14.27
2022-12-31T02:04:31.525Z,12.55
2022-12-31T02:07:02.474Z,13.30
2022-12-31T02:09:30.473Z,38.88
2022-12-31T02:11:57.419Z,28.00
2022-12-31T02:14:28.821Z,15.18
2022-12-31T02:17:17.615Z,19.23
2022-12-31T02:20:05.133Z,12.63
2022-12-31T02:22:53.272Z,16.80
2022-12-31T02:25:47.841Z,15.82
2022-12-31T02:28:26.846Z,20.15
2022-12-31T02:31:25.633Z,20.00
2022-12-31T02:34:01.300Z,10.52
2022-12-31T02:36:36.347Z,15.30
2022-12-31T02:39:06.209Z,11.52
2022-12-31T02:41:51.514Z,18.95
2022-12-31T02:44:24.476Z,15.48
2022-12-31T02:47:05.001Z,14.15
2022-12-31T02:49:39.815Z,11.43
2022-12-31T02:52:11.168Z,11.98
2022-12-31T02:55:16.191Z,14.57
2022-12-31T02:57:52.552Z,14.25
2022-12-31T03:00:38.640Z,18.52
2022-12-31T03:03:08.015Z,16.92
2022-12-31T03:05:44.239Z,12.55
2022-12-31T03:08:11.111Z,14.10
2022-12-31T03:10:38.022Z,10.98
2022-12-31T03:13:04.837Z,13.88
2022-12-31T03:15:34.246Z,14.65
2022-12-31T03:18:56.366Z,11.23
2022-12-31T03:21:41.592Z,18.08
2022-12-31T03:24:27.159Z,13.90
2022-12-31T03:26:53.996Z,13.40
2022-12-31T03:29:20.860Z,12.25
2022-12-31T03:31:47.743Z,13.40
2022-12-31T03:34:15.670Z,13.27
2022-12-31T03:36:42.550Z,12.38
2022-12-31T03:39:09.416Z,12.55
2022-12-31T03:41:36.255Z,14.50
2022-12-31T03:44:03.102Z,12.77
2022-12-31T03:46:30.011Z,17.10
2022-12-31T03:48:56.925Z,12.93
2022-12-31T03:51:23.789Z,14.73
2022-12-31T03:53:50.631Z,14.68
2022-12-31T03:56:17.452Z,12.43
2022-12-31T03:58:44.295Z,12.93
2022-12-31T04:01:11.235Z,13.75
2022-12-31T04:03:38.104Z,14.90
2022-12-31T04:06:04.969Z,16.63
2022-12-31T04:08:31.831Z,15.32
2022-12-31T04:10:58.811Z,14.45
2022-12-31T04:13:25.610Z,10.65
2022-12-31T04:15:52.677Z,13.57
2022-12-31T04:18:19.542Z,11.43
2022-12-31T04:20:46.403Z,14.25
2022-12-31T04:23:13.276Z,16.67
2022-12-31T04:25:40.152Z,13.45
2022-12-31T04:28:07.010Z,13.85
2022-12-31T04:30:33.903Z,18.02
2022-12-31T04:33:00.766Z,12.70
2022-12-31T04:35:27.602Z,9.75
2022-12-31T04:37:54.471Z,12.23
2022-12-31T04:40:21.318Z,15.02
2022-12-31T04:42:48.171Z,14.23
2022-12-31T04:45:15.058Z,11.75
2022-12-31T04:47:41.926Z,15.55
2022-12-31T04:50:08.919Z,13.32
2022-12-31T04:52:42.352Z,14.48
2022-12-31T04:55:09.941Z,9.95
2022-12-31T04:57:36.876Z,13.77
2022-12-31T05:00:04.012Z,14.23
2022-12-31T05:02:31.039Z,14.13
2022-12-31T05:04:58.002Z,16.08
2022-12-31T05:07:24.851Z,18.25
2022-12-31T05:09:51.674Z,13.77
2022-12-31T05:12:18.626Z,20.00
2022-12-31T05:14:45.459Z,15.82
2022-12-31T05:17:12.319Z,12.00
2022-12-31T05:19:39.203Z,12.07
2022-12-31T05:22:24.778Z,15.38
2022-12-31T05:24:52.390Z,17.52
2022-12-31T05:27:19.295Z,14.48
2022-12-31T05:29:46.086Z,20.20
2022-12-31T05:32:12.931Z,15.98
2022-12-31T05:34:39.819Z,13.38
2022-12-31T05:37:06.665Z,13.13
2022-12-31T05:39:33.516Z,13.70
2022-12-31T05:42:00.363Z,12.73
2022-12-31T05:44:27.250Z,12.38
2022-12-31T05:46:54.091Z,10.43
2022-12-31T05:49:20.982Z,14.60
2022-12-31T05:51:47.893Z,13.93
2022-12-31T05:54:14.822Z,16.48
2022-12-31T05:56:41.748Z,16.38
2022-12-31T05:59:08.571Z,19.55
2022-12-31T06:01:35.513Z,16.17
2022-12-31T06:04:02.501Z,15.40
2022-12-31T06:06:29.421Z,16.52
2022-12-31T06:08:56.274Z,18.38
2022-12-31T06:11:23.372Z,15.10
2022-12-31T06:13:50.229Z,15.88
2022-12-31T06:16:17.115Z,14.70
2022-12-31T06:18:43.986Z,13.88
2022-12-31T06:21:10.805Z,14.75
2022-12-31T06:23:37.636Z,13.30
2022-12-31T06:26:05.470Z,13.88
2022-12-31T06:28:32.522Z,13.60
2022-12-31T06:31:01.254Z,12.77
2022-12-31T06:33:28.922Z,17.33
2022-12-31T06:36:00.466Z,13.50
2022-12-31T06:38:29.006Z,18.23
2022-12-31T06:40:55.897Z,16.42
2022-12-31T06:43:23.419Z,14.05
2022-12-31T06:45:50.295Z,15.10
2022-12-31T06:48:17.183Z,19.20
2022-12-31T06:50:44.144Z,13.40
2022-12-31T06:53:10.983Z,31.30
2022-12-31T06:55:38.244Z,25.83
2022-12-31T06:58:05.328Z,18.98
2022-12-31T07:00:32.379Z,16.33
2022-12-31T07:03:20.558Z,14.68
2022-12-31T07:05:52.752Z,16.98
2022-12-31T07:08:22.386Z,16.25
2022-12-31T07:11:01.497Z,16.40
2022-12-31T07:13:46.447Z,13.38
2022-12-31T07:16:38.042Z,19.02
2022-12-31T07:19:22.182Z,16.30
2022-12-31T07:21:51.506Z,19.15
2022-12-31T07:24:18.751Z,16.05
2022-12-31T07:27:00.353Z,14.32
2022-12-31T07:29:48.943Z,16.83
2022-12-31T07:32:37.255Z,12.32
2022-12-31T07:35:12.047Z,15.88
2022-12-31T07:37:57.607Z,16.80
2022-12-31T07:41:07.348Z,15.70
2022-12-31T07:43:44.713Z,19.77
2022-12-31T07:46:22.305Z,19.02
2022-12-31T07:48:49.527Z,20.75
2022-12-31T07:51:22.690Z,15.57
2022-12-31T07:53:49.535Z,22.98
2022-12-31T07:56:16.453Z,17.60
2022-12-31T07:58:58.767Z,18.85
2022-12-31T08:01:41.504Z,20.13
2022-12-31T08:04:28.728Z,21.60
2022-12-31T08:07:19.435Z,24.83
2022-12-31T08:10:04.164Z,19.27
2022-12-31T08:12:35.251Z,20.27
2022-12-31T08:15:02.381Z,19.42
2022-12-31T08:17:29.453Z,27.58
2022-12-31T08:19:56.643Z,20.02
2022-12-31T08:22:39.137Z,20.13
2022-12-31T08:25:28.144Z,18.70
2022-12-31T08:28:33.333Z,20.67
2022-12-31T08:31:22.662Z,20.73
2022-12-31T08:34:16.288Z,24.30
2022-12-31T08:36:48.973Z,23.50
2022-12-31T08:39:36.679Z,24.42
2022-12-31T08:42:10.076Z,19.40
2022-12-31T08:44:43.911Z,26.20
2022-12-31T08:47:58.006Z,23.20
2022-12-31T08:50:27.303Z,35.95
2022-12-31T08:52:54.669Z,23.65
2022-12-31T08:55:21.814Z,20.33
2022-12-31T08:58:34.428Z,22.90
2022-12-31T09:01:01.754Z,21.95
2022-12-31T09:03:37.473Z,23.05
2022-12-31T09:06:20.436Z,25.15
2022-12-31T09:09:06.000Z,27.30
2022-12-31T09:11:50.911Z,27.17
2022-12-31T09:14:44.178Z,24.42
2022-12-31T09:17:34.790Z,26.95
2022-12-31T09:20:02.186Z,22.73
2022-12-31T09:22:29.234Z,30.10
2022-12-31T09:24:56.209Z,25.80
2022-12-31T09:27:30.387Z,25.05
2022-12-31T09:30:03.711Z,29.40
2022-12-31T09:32:58.583Z,27.65
2022-12-31T09:35:30.468Z,27.65
2022-12-31T09:38:12.978Z,25.63
2022-12-31T09:41:17.524Z,26.98
2022-12-31T09:44:09.158Z,26.17
2022-12-31T09:46:45.301Z,28.33
2022-12-31T09:49:33.775Z,26.60
2022-12-31T09:52:25.570Z,26.27
2022-12-31T09:55:27.711Z,26.77
2022-12-31T09:58:01.895Z,23.27
2022-12-31T10:00:41.265Z,28.08
2022-12-31T10:03:46.986Z,28.50
2022-12-31T10:06:29.343Z,30.13
2022-12-31T10:11:44.232Z,29.10
2022-12-31T10:14:29.975Z,26.35
2022-12-31T10:17:16.900Z,28.25
2022-12-31T10:20:31.184Z,29.33
2022-12-31T10:23:06.709Z,28.75
2022-12-31T10:26:01.435Z,25.45
2022-12-31T10:28:49.333Z,27.77
2022-12-31T10:31:32.683Z,28.83
2022-12-31T10:34:42.398Z,27.45
2022-12-31T10:37:23.754Z,26.95
2022-12-31T10:40:09.023Z,29.85
2022-12-31T10:42:41.770Z,27.10
2022-12-31T10:45:33.579Z,27.45
2022-12-31T10:48:38.306Z,26.80
2022-12-31T10:51:20.842Z,32.15
2022-12-31T10:54:25.397Z,28.52
2022-12-31T10:57:29.627Z,30.00
2022-12-31T10:59:56.432Z,29.58
2022-12-31T11:02:32.398Z,24.48
2022-12-31T11:05:24.271Z,28.38
2022-12-31T11:08:08.533Z,30.48
2022-12-31T11:10:52.060Z,29.48
2022-12-31T11:13:48.648Z,35.63
2022-12-31T11:16:24.607Z,30.40
2022-12-31T11:19:19.121Z,27.45
2022-12-31T11:22:01.134Z,32.17
2022-12-31T11:24:43.370Z,30.10
2022-12-31T11:27:19.425Z,26.23
2022-12-31T11:30:14.066Z,27.60
2022-12-31T11:33:02.425Z,31.02
2022-12-31T11:35:57.500Z,32.08
2022-12-31T11:39:01.704Z,30.92
2022-12-31T11:41:50.067Z,28.83
2022-12-31T11:44:26.870Z,31.02
2022-12-31T11:47:10.074Z,28.52
2022-12-31T11:50:10.871Z,28.13
2022-12-31T11:53:15.683Z,28.45
2022-12-31T11:56:16.542Z,24.02
2022-12-31T11:58:50.265Z,29.08
2022-12-31T12:01:19.988Z,37.70
2022-12-31T12:03:48.116Z,30.67
2022-12-31T12:06:18.409Z,30.83
2022-12-31T12:08:46.447Z,35.13
2022-12-31T12:11:21.355Z,29.40
2022-12-31T12:13:48.410Z,31.85
2022-12-31T12:16:16.312Z,33.45
2022-12-31T12:18:50.203Z,33.75
2022-12-31T12:21:18.579Z,34.63
2022-12-31T12:24:02.283Z,29.85
2022-12-31T12:26:33.902Z,32.25
2022-12-31T12:29:18.794Z,34.40
2022-12-31T12:32:19.507Z,31.77
2022-12-31T12:34:49.915Z,38.42
2022-12-31T12:37:33.257Z,32.57
2022-12-31T12:40:33.437Z,37.28
2022-12-31T12:43:01.607Z,31.65
2022-12-31T12:45:38.207Z,34.45
2022-12-31T12:48:16.853Z,34.72
2022-12-31T12:50:47.893Z,29.25
2022-12-31T12:53:39.354Z,36.15
2022-12-31T12:56:18.960Z,30.48
2022-12-31T12:59:07.625Z,34.70
2022-12-31T13:01:43.366Z,30.33
2022-12-31T13:04:38.300Z,37.72
2022-12-31T13:07:38.318Z,33.47
2022-12-31T13:10:15.646Z,37.22
2022-12-31T13:13:23.887Z,33.58
2022-12-31T13:15:55.186Z,36.08
2022-12-31T13:18:44.348Z,36.88
2022-12-31T13:21:35.547Z,36.70
2022-12-31T13:24:14.478Z,38.05
2022-12-31T13:26:51.298Z,43.63
2022-12-31T13:29:23.620Z,37.80
2022-12-31T13:31:52.884Z,36.63
2022-12-31T13:34:29.222Z,38.67
2022-12-31T13:37:02.363Z,40.90
2022-12-31T13:39:33.452Z,44.38
2022-12-31T13:42:09.317Z,35.95
2022-12-31T13:45:14.858Z,35.72
2022-12-31T13:48:08.151Z,40.17
2022-12-31T13:50:42.544Z,44.28
2022-12-31T13:53:33.421Z,41.70
2022-12-31T13:56:06.536Z,39.50
2022-12-31T13:58:39.595Z,43.70
2022-12-31T14:01:37.779Z,43.70
2022-12-31T14:04:10.181Z,44.03
2022-12-31T14:06:47.827Z,47.10
2022-12-31T14:09:28.871Z,47.13
2022-12-31T14:12:10.811Z,50.05
2022-12-31T14:15:05.796Z,47.00
2022-12-31T14:17:36.484Z,48.72
2022-12-31T14:20:25.496Z,50.70
2022-12-31T14:22:58.442Z,50.58
2022-12-31T14:25:42.980Z,49.47
2022-12-31T14:28:17.897Z,48.35
2022-12-31T14:30:46.308Z,60.85
2022-12-31T14:33:31.270Z,52.97
2022-12-31T14:36:10.672Z,54.47
2022-12-31T14:39:06.231Z,59.13
2022-12-31T14:41:53.442Z,56.63
2022-12-31T14:44:29.990Z,56.10
2022-12-31T14:47:20.262Z,70.00
2022-12-31T14:50:10.037Z,60.28
2022-12-31T14:52:48.754Z,57.80
2022-12-31T14:55:15.597Z,60.10
2022-12-31T14:58:26.055Z,59.22
2022-12-31T15:00:38.413Z,74.50
2022-12-31T15:03:25.783Z,67.28
2022-12-31T15:06:01.897Z,63.42
2022-12-31T15:08:47.869Z,63.38
2022-12-31T15:11:28.773Z,71.20
2022-12-31T15:14:13.797Z,70.47
2022-12-31T15:17:21.752Z,64.80
2022-12-31T15:20:03.533Z,71.25
2022-12-31T15:24:57.811Z,67.47
2022-12-31T15:27:27.370Z,62.97
2022-12-31T15:29:54.324Z,59.55
2022-12-31T15:32:29.065Z,73.90
2022-12-31T15:35:04.095Z,68.55
2022-12-31T15:37:36.048Z,64.75
2022-12-31T15:40:25.076Z,67.10
2022-12-31T15:43:28.274Z,69.43
2022-12-31T15:45:56.670Z,69.10
2022-12-31T15:49:03.663Z,68.93
2022-12-31T15:51:53.799Z,61.53
2022-12-31T15:54:44.259Z,59.28
2022-12-31T15:57:24.535Z,59.15
2022-12-31T15:59:58.950Z,61.95
2022-12-31T16:02:27.490Z,58.92
2022-12-31T16:04:55.618Z,62.58
2022-12-31T16:07:23.857Z,72.40
2022-12-31T16:09:57.554Z,59.83
2022-12-31T16:12:33.758Z,57.63
2022-12-31T16:15:03.180Z,56.20
2022-12-31T16:17:31.299Z,56.58
2022-12-31T16:19:59.829Z,55.53
2022-12-31T16:22:35.643Z,50.63
2022-12-31T16:25:29.692Z,56.78
2022-12-31T16:27:53.957Z,52.83
2022-12-31T16:30:25.132Z,54.33
2022-12-31T16:32:53.858Z,49.17
2022-12-31T16:35:32.390Z,47.30
2022-12-31T16:38:12.934Z,49.67
2022-12-31T16:40:41.787Z,50.35
2022-12-31T16:43:27.476Z,49.15
2022-12-31T16:45:58.151Z,45.92
2022-12-31T16:48:26.520Z,56.03
2022-12-31T16:50:55.914Z,50.15
2022-12-31T16:53:26.685Z,48.88
2022-12-31T16:56:08.856Z,49.67
2022-12-31T16:58:41.651Z,67.82
2022-12-31T17:01:24.890Z,54.63
2022-12-31T17:04:03.241Z,50.90
2022-12-31T17:06:33.414Z,48.70
2022-12-31T17:09:20.840Z,51.20
2022-12-31T17:12:25.765Z,45.63
2022-12-31T17:14:52.599Z,48.80
2022-12-31T17:17:25.684Z,43.72
2022-12-31T17:19:58.265Z,44.85
2022-12-31T17:22:34.311Z,44.22
2022-12-31T17:25:22.648Z,42.45
2022-12-31T17:27:54.476Z,41.88
2022-12-31T17:30:35.172Z,38.35
2022-12-31T17:33:09.224Z,41.45
2022-12-31T17:35:42.395Z,40.47
2022-12-31T17:38:28.163Z,42.13
2022-12-31T17:41:05.991Z,37.22
2022-12-31T17:43:37.456Z,37.22
2022-12-31T17:46:11.005Z,37.42
2022-12-31T17:48:38.015Z,44.10
2022-12-31T17:51:05.191Z,38.00
2022-12-31T17:53:32.044Z,37.67
2022-12-31T17:56:03.531Z,36.13
2022-12-31T17:58:43.493Z,40.13
2022-12-31T18:01:13.854Z,42.33
2022-12-31T18:03:40.831Z,39.85
2022-12-31T18:06:14.647Z,42.13
2022-12-31T18:08:43.696Z,39.38
2022-12-31T18:11:24.247Z,36.85
2022-12-31T18:13:51.251Z,37.70
2022-12-31T18:16:18.193Z,40.28
2022-12-31T18:18:45.538Z,40.53
2022-12-31T18:21:18.444Z,42.00
2022-12-31T18:23:47.981Z,41.33
2022-12-31T18:26:17.536Z,35.92
2022-12-31T18:28:44.401Z,44.80
2022-12-31T18:31:17.901Z,45.13
2022-12-31T18:33:45.121Z,39.95
2022-12-31T18:36:13.925Z,41.55
2022-12-31T18:38:41.330Z,36.05
2022-12-31T18:41:17.875Z,41.67
2022-12-31T18:43:45.112Z,38.28
2022-12-31T18:46:18.229Z,54.60
2022-12-31T18:48:45.285Z,58.72
2022-12-31T18:51:19.204Z,43.92
2022-12-31T18:53:46.419Z,40.70
2022-12-31T18:56:16.461Z,35.20
2022-12-31T18:58:44.151Z,30.00
2022-12-31T19:01:29.500Z,33.55
2022-12-31T19:04:02.111Z,39.60
2022-12-31T19:06:30.229Z,30.48
2022-12-31T19:08:59.132Z,34.03
2022-12-31T19:11:27.691Z,36.47
2022-12-31T19:13:54.523Z,33.03
2022-12-31T19:16:21.395Z,30.05
2022-12-31T19:18:49.540Z,30.08
2022-12-31T19:21:22.727Z,31.90
2022-12-31T19:23:51.017Z,32.60
2022-12-31T19:26:20.645Z,37.97
2022-12-31T19:28:49.248Z,36.35
2022-12-31T19:31:16.832Z,38.95
2022-12-31T19:33:44.335Z,43.08
2022-12-31T19:36:18.517Z,38.95
2022-12-31T19:38:46.576Z,35.08
2022-12-31T19:41:19.163Z,31.58
2022-12-31T19:43:47.285Z,33.08
2022-12-31T19:46:15.626Z,35.22
2022-12-31T19:48:43.211Z,33.13
2022-12-31T19:51:17.638Z,32.70
2022-12-31T19:53:45.964Z,38.30
2022-12-31T19:56:14.741Z,58.13
2022-12-31T19:58:41.677Z,59.72
2022-12-31T20:01:09.849Z,46.67
2022-12-31T20:03:36.863Z,39.70
2022-12-31T20:06:08.991Z,36.17
2022-12-31T20:08:38.072Z,33.22
2022-12-31T20:11:22.589Z,36.47
2022-12-31T20:13:52.222Z,36.60
2022-12-31T20:16:21.768Z,33.05
2022-12-31T20:18:50.609Z,33.08
2022-12-31T20:21:23.740Z,36.08
2022-12-31T20:23:52.422Z,30.75
2022-12-31T20:26:21.309Z,31.65
2022-12-31T20:28:48.554Z,37.95
2022-12-31T20:31:21.417Z,50.38
2022-12-31T20:33:48.486Z,42.83
2022-12-31T20:36:16.881Z,33.35
2022-12-31T20:38:44.719Z,37.25
2022-12-31T20:41:14.284Z,39.35
2022-12-31T20:43:41.588Z,38.50
2022-12-31T20:46:15.326Z,39.50
2022-12-31T20:48:43.042Z,44.45
2022-12-31T20:51:10.124Z,32.92
2022-12-31T20:53:37.005Z,34.33
2022-12-31T20:56:08.798Z,30.98
2022-12-31T20:58:36.526Z,33.47
2022-12-31T21:01:07.043Z,34.80
2022-12-31T21:04:04.250Z,36.65
2022-12-31T21:06:23.285Z,35.88
2022-12-31T21:08:50.412Z,32.80
2022-12-31T21:11:35.786Z,36.08
2022-12-31T21:14:02.730Z,40.90
2022-12-31T21:16:29.736Z,38.88
2022-12-31T21:18:56.713Z,41.25
2022-12-31T21:21:23.916Z,39.85
2022-12-31T21:23:50.823Z,35.63
2022-12-31T21:26:17.707Z,36.85
2022-12-31T21:28:45.053Z,33.10
2022-12-31T21:31:13.798Z,36.97
2022-12-31T21:33:45.280Z,37.88
2022-12-31T21:36:12.439Z,34.90
2022-12-31T21:38:39.491Z,34.40
2022-12-31T21:41:08.884Z,35.60
2022-12-31T21:43:35.740Z,39.13
2022-12-31T21:46:07.457Z,38.47
2022-12-31T21:48:34.463Z,37.75
2022-12-31T21:51:08.308Z,35.67
2022-12-31T21:53:37.368Z,73.47
2022-12-31T21:56:16.103Z,44.20
2022-12-31T21:59:08.668Z,46.35
2022-12-31T22:01:53.967Z,37.38
2022-12-31T22:04:59.611Z,36.00
2022-12-31T22:07:07.932Z,40.10
2022-12-31T22:09:34.852Z,53.72
2022-12-31T22:12:01.686Z,57.42
2022-12-31T22:14:28.525Z,59.55
2022-12-31T22:16:55.430Z,56.70
2022-12-31T22:19:22.246Z,97.20
2022-12-31T22:21:49.049Z,114.13
2022-12-31T22:24:15.968Z,130.52
2022-12-31T22:26:46.447Z,125.95
2022-12-31T22:29:13.683Z,124.30
2022-12-31T22:31:40.672Z,128.98
2022-12-31T22:34:07.690Z,120.53
2022-12-31T22:36:34.531Z,112.47
2022-12-31T22:39:01.401Z,111.75
2022-12-31T22:41:29.008Z,129.80
2022-12-31T22:44:03.552Z,113.38
2022-12-31T22:46:32.058Z,95.35
2022-12-31T22:49:00.330Z,88.82
2022-12-31T22:51:56.642Z,82.93
2022-12-31T22:54:14.906Z,70.32
2022-12-31T22:56:41.915Z,65.10
2022-12-31T22:59:09.351Z,68.55
2022-12-31T23:01:36.940Z,56.80
2022-12-31T23:04:04.235Z,50.95
2022-12-31T23:06:31.345Z,46.20
2022-12-31T23:09:16.687Z,57.60
2022-12-31T23:11:43.638Z,87.25
2022-12-31T23:14:35.536Z,37.67
2022-12-31T23:20:18.859Z,28.73
2022-12-31T23:23:05.517Z,44.05
2022-12-31T23:25:33.981Z,37.97
2022-12-31T23:28:01.194Z,39.92
2022-12-31T23:30:28.430Z,31.65
2022-12-31T23:32:55.396Z,23.90
2022-12-31T23:35:22.378Z,19.05
2022-12-31T23:37:49.253Z,16.55
2022-12-31T23:40:21.132Z,14.50
2022-12-31T23:42:49.701Z,14.27
2022-12-31T23:45:16.850Z,15.88
2022-12-31T23:47:43.896Z,15.05
2022-12-31T23:50:10.794Z,15.50
2022-12-31T23:52:37.637Z,14.57
2022-12-31T23:55:04.865Z,20.25
2022-12-31T23:57:31.751Z,21.85
2022-12-31T23:59:58.644Z,22.70
